Time;durP1;ratioP1;P1;durP2;ratioP2;P2;SDS_P1;SDS_P2;PMS_P1;PMS_P2;Temp;Humidity;BMP_temperature;BMP_pressure;BME280_temperature;BME280_humidity;BME280_pressure;Samples;Min_cycle;Max_cycle;Signal;HPM_P1;HPM_P2
2022/07/15 00:02:13;;;;;;;;;;;;;;;23.50;56.79;100747.16;7402267;19;1540;-57
2022/07/15 00:04:41;;;;;;;;;;;;;;;23.53;56.42;100751.38;7406739;19;1608;-59
2022/07/15 00:07:10;;;;;;;;;;;;;;;23.51;56.44;100753.38;7406974;19;1219;-56
2022/07/15 00:12:19;;;;;;;;;;;;;;;23.50;56.52;100751.72;7404280;19;1664;-59
2022/07/15 00:14:47;;;;;;;;;;;;;;;23.53;56.43;100754.91;7404072;19;1309;-57
2022/07/15 00:17:18;;;;;;;;;;;;;;;23.51;56.34;100742.59;7403940;19;1865;-59
2022/07/15 00:19:47;;;;;;;;;;;;;;;23.50;56.57;100746.31;7405240;19;1392;-60
2022/07/15 00:22:15;;;;;;;;;;;;;;;23.46;56.82;100750.31;7404297;19;1625;-56
2022/07/15 00:24:43;;;;;;;;;;;;;;;23.54;56.72;100758.47;7406133;19;1915;-59
2022/07/15 00:27:13;;;;;;;;;;;;;;;23.52;56.81;100755.94;7406175;19;1726;-56
2022/07/15 00:29:41;;;;;;;;;;;;;;;23.49;56.62;100760.81;7405567;19;1519;-59
2022/07/15 00:32:10;;;;;;;;;;;;;;;23.47;56.60;100739.38;7407432;19;1451;-59
2022/07/15 00:34:41;;;;;;;;;;;;;;;23.47;56.48;100746.63;7406517;19;1624;-60
2022/07/15 00:37:09;;;;;;;;;;;;;;;23.43;56.89;100738.84;7404520;19;1857;-59
2022/07/15 00:39:38;;;;;;;;;;;;;;;23.48;56.59;100745.63;7407036;19;1581;-56
2022/07/15 00:42:06;;;;;;;;;;;;;;;23.47;56.80;100738.53;7407256;19;1489;-56
2022/07/15 00:44:35;;;;;;;;;;;;;;;23.46;56.81;100739.53;7405065;19;1672;-56
2022/07/15 00:47:03;;;;;;;;;;;;;;;23.51;56.75;100754.22;7403961;19;1538;-56
2022/07/15 00:49:32;;;;;;;;;;;;;;;23.46;56.53;100734.13;7406166;19;1581;-56
2022/07/15 00:52:05;;;;;;;;;;;;;;;23.47;56.80;100741.22;7406382;19;1553;-56
2022/07/15 00:54:33;;;;;;;;;;;;;;;23.45;56.80;100745.97;7404870;19;1754;-56
2022/07/15 00:57:02;;;;;;;;;;;;;;;23.43;56.39;100727.22;7404605;19;1853;-56
2022/07/15 00:59:34;;;;;;;;;;;;;;;23.46;56.53;100739.53;7406211;19;1576;-59
2022/07/15 01:02:03;;;;;;;;;;;;;;;23.45;56.41;100743.25;7404401;19;1352;-59
2022/07/15 01:04:32;;;;;;;;;;;;;;;23.45;56.80;100754.06;7405937;19;1846;-56
2022/07/15 01:07:03;;;;;;;;;;;;;;;23.43;56.63;100740.72;7405221;19;1605;-59
2022/07/15 01:09:32;;;;;;;;;;;;;;;23.43;56.72;100719.97;7406557;19;1546;-56
2022/07/15 01:12:00;;;;;;;;;;;;;;;23.42;56.66;100729.09;7404518;19;1509;-59
2022/07/15 01:14:29;;;;;;;;;;;;;;;23.42;56.52;100728.25;7405379;19;1696;-57
2022/07/15 01:16:57;;;;;;;;;;;;;;;23.42;56.51;100728.25;7404646;19;1863;-56
2022/07/15 01:19:25;;;;;;;;;;;;;;;23.40;56.71;100717.63;7404478;19;1538;-56
2022/07/15 01:21:56;;;;;;;;;;;;;;;23.41;56.80;100727.38;7405033;19;1636;-59
2022/07/15 01:24:24;;;;;;;;;;;;;;;23.42;56.59;100712.91;7405865;19;1556;-56
2022/07/15 01:26:53;;;;;;;;;;;;;;;23.39;56.72;100715.91;7406207;19;1609;-59
2022/07/15 01:29:21;;;;;;;;;;;;;;;23.40;56.52;100725.72;7405135;19;1553;-58
2022/07/15 01:31:50;;;;;;;;;;;;;;;23.41;56.43;100718.44;7404142;19;1344;-59
2022/07/15 01:34:19;;;;;;;;;;;;;;;23.41;56.78;100734.63;7404843;19;1208;-56
2022/07/15 01:36:47;;;;;;;;;;;;;;;23.41;56.66;100727.38;7402406;19;1842;-56
2022/07/15 01:39:18;;;;;;;;;;;;;;;23.39;56.75;100721.31;7405933;19;968;-56
2022/07/15 01:41:47;;;;;;;;;;;;;;;23.38;56.86;100725.03;7403876;19;1680;-59
2022/07/15 01:44:16;;;;;;;;;;;;;;;23.39;56.74;100721.31;7405282;19;1586;-56
2022/07/15 01:46:44;;;;;;;;;;;;;;;23.37;56.43;100720.63;7404858;19;1629;-57
2022/07/15 01:49:25;;;;;;;;;;;;;;;23.43;56.64;100728.06;7403742;19;1746;-59
2022/07/15 01:51:54;;;;;;;;;;;;;;;23.39;56.55;100729.41;7401982;19;1866;-58
2022/07/15 01:54:26;;;;;;;;;;;;;;;23.44;56.62;100739.72;7404097;19;1657;-58
2022/07/15 01:56:54;;;;;;;;;;;;;;;23.37;56.79;100717.94;7401180;19;1847;-57
2022/07/15 01:59:24;;;;;;;;;;;;;;;23.38;56.89;100733.13;7402973;19;1602;-56
2022/07/15 02:01:53;;;;;;;;;;;;;;;23.36;56.61;100718.13;7395065;19;1574;-59
2022/07/15 02:04:22;;;;;;;;;;;;;;;23.35;56.68;100727.22;7403327;19;1327;-59
2022/07/15 02:06:51;;;;;;;;;;;;;;;23.37;56.93;100727.88;7402862;19;1760;-59
2022/07/15 02:09:21;;;;;;;;;;;;;;;23.34;56.65;100704.78;7403094;19;1542;-59
2022/07/15 02:11:52;;;;;;;;;;;;;;;23.37;56.48;100720.63;7402342;19;1415;-59
2022/07/15 02:14:21;;;;;;;;;;;;;;;23.35;56.64;100716.41;7403297;19;1431;-59
2022/07/15 02:16:50;;;;;;;;;;;;;;;23.33;56.76;100723.84;7402743;19;1851;-60
2022/07/15 02:19:18;;;;;;;;;;;;;;;23.36;56.88;100729.75;7402989;19;1627;-59
2022/07/15 02:21:47;;;;;;;;;;;;;;;23.36;56.63;100723.50;7401282;19;1768;-59
2022/07/15 02:24:19;;;;;;;;;;;;;;;23.34;56.92;100714.75;7402562;19;1653;-59
2022/07/15 02:26:48;;;;;;;;;;;;;;;23.33;56.71;100716.56;7402372;19;1443;-59
2022/07/15 02:29:19;;;;;;;;;;;;;;;23.37;56.64;100726.03;7401451;19;1398;-59
2022/07/15 02:31:48;;;;;;;;;;;;;;;23.37;56.75;100715.22;7402330;19;1256;-59
2022/07/15 02:34:16;;;;;;;;;;;;;;;23.41;56.62;100727.38;7401152;19;1329;-59
2022/07/15 02:36:44;;;;;;;;;;;;;;;23.36;56.64;100718.97;7399643;19;1901;-60
2022/07/15 02:39:13;;;;;;;;;;;;;;;23.37;56.82;100727.88;7402180;19;1389;-60
2022/07/15 02:41:41;;;;;;;;;;;;;;;23.37;56.64;100714.41;7400162;19;1382;-59
2022/07/15 02:44:10;;;;;;;;;;;;;;;23.38;56.67;100711.53;7401675;19;1374;-59
2022/07/15 02:46:41;;;;;;;;;;;;;;;23.37;56.70;100725.19;7401719;19;1253;-59
2022/07/15 02:49:11;;;;;;;;;;;;;;;23.38;56.86;100722.34;7408668;19;1296;-59
2022/07/15 02:51:39;;;;;;;;;;;;;;;23.37;56.74;100723.31;7409131;19;1303;-59
2022/07/15 02:54:08;;;;;;;;;;;;;;;23.35;56.68;100714.56;7409914;19;1320;-59
2022/07/15 02:56:36;;;;;;;;;;;;;;;23.41;56.83;100727.38;7408229;19;1872;-59
2022/07/15 02:59:05;;;;;;;;;;;;;;;23.35;56.82;100728.03;7407995;19;1344;-59
2022/07/15 03:01:33;;;;;;;;;;;;;;;23.32;56.78;100719.47;7407411;19;1770;-59
2022/07/15 03:04:04;;;;;;;;;;;;;;;23.32;56.84;100712.19;7407949;19;1359;-59
2022/07/15 03:06:33;;;;;;;;;;;;;;;23.31;56.84;100731.25;7409232;19;1747;-59
2022/07/15 03:09:02;;;;;;;;;;;;;;;23.31;56.84;100718.59;7409520;19;1098;-59
2022/07/15 03:11:31;;;;;;;;;;;;;;;23.31;56.79;100718.59;7407409;19;1513;-59
2022/07/15 03:13:59;;;;;;;;;;;;;;;23.30;56.95;100707.97;7408662;19;1138;-59
2022/07/15 03:16:28;;;;;;;;;;;;;;;23.37;56.72;100736.81;7408905;19;1680;-59
2022/07/15 03:18:56;;;;;;;;;;;;;;;23.31;56.65;100721.28;7407214;19;1857;-59
2022/07/15 03:21:27;;;;;;;;;;;;;;;23.37;56.73;100725.19;7409636;19;1609;-59
2022/07/15 03:23:57;;;;;;;;;;;;;;;23.30;56.73;100721.44;7407772;19;1484;-60
2022/07/15 03:26:25;;;;;;;;;;;;;;;23.39;56.47;100720.47;7408115;19;1200;-59
2022/07/15 03:28:54;;;;;;;;;;;;;;;23.43;56.51;100719.13;7407355;19;1514;-60
2022/07/15 03:31:22;;;;;;;;;;;;;;;23.32;54.59;100714.91;7409783;19;1577;-59
2022/07/15 03:33:51;;;;;;;;;;;;;;;23.37;54.82;100728.72;7407255;19;1707;-59
2022/07/15 03:36:19;;;;;;;;;;;;;;;23.36;56.02;100712.72;7408816;19;1631;-59
2022/07/15 03:38:51;;;;;;;;;;;;;;;23.31;56.73;100718.59;7407605;19;1850;-59
2022/07/15 03:41:20;;;;;;;;;;;;;;;23.35;56.98;100721.81;7406507;19;1762;-59
2022/07/15 03:43:48;;;;;;;;;;;;;;;23.33;56.58;100713.88;7407844;19;1443;-59
2022/07/15 03:46:17;;;;;;;;;;;;;;;23.33;56.72;100713.88;7406036;19;1766;-59
2022/07/15 03:48:45;;;;;;;;;;;;;;;23.33;56.77;100713.88;7406846;19;1361;-59
2022/07/15 03:51:14;;;;;;;;;;;;;;;23.37;56.90;100712.53;7407983;19;1537;-59
2022/07/15 03:53:43;;;;;;;;;;;;;;;23.38;56.60;100719.63;7408407;19;1545;-59
2022/07/15 03:56:15;;;;;;;;;;;;;;;23.37;56.69;100709.84;7408013;19;1328;-59
2022/07/15 03:58:44;;;;;;;;;;;;;;;23.41;56.69;100707.66;7403562;19;1854;-59
2022/07/15 04:01:12;;;;;;;;;;;;;;;23.39;56.65;100715.91;7406529;19;1621;-59
2022/07/15 04:03:41;;;;;;;;;;;;;;;23.42;56.60;100712.91;7407611;19;1554;-59
2022/07/15 04:06:10;;;;;;;;;;;;;;;23.41;56.46;100708.50;7406914;19;1538;-59
2022/07/15 04:08:38;;;;;;;;;;;;;;;23.46;56.26;100708.00;7408010;19;1589;-59
2022/07/15 04:11:07;;;;;;;;;;;;;;;23.45;56.38;100695.50;7405855;19;1534;-59
2022/07/15 04:13:38;;;;;;;;;;;;;;;23.46;56.65;100699.91;7405608;19;1403;-59
2022/07/15 04:16:07;;;;;;;;;;;;;;;23.46;56.36;100702.63;7406753;19;1548;-59
2022/07/15 04:18:36;;;;;;;;;;;;;;;23.51;56.28;100708.34;7405752;19;1854;-59
2022/07/15 04:21:04;;;;;;;;;;;;;;;23.51;56.47;100705.63;7406092;19;1555;-60
2022/07/15 04:23:33;;;;;;;;;;;;;;;23.53;56.22;100708.19;7406822;19;1584;-60
2022/07/15 04:26:02;;;;;;;;;;;;;;;23.53;56.28;100702.78;7406169;19;1554;-60
2022/07/15 04:28:30;;;;;;;;;;;;;;;23.60;56.43;100714.59;7405560;19;1636;-60
2022/07/15 04:31:01;;;;;;;;;;;;;;;23.55;56.03;100700.75;7405640;19;1356;-57
2022/07/15 04:33:30;;;;;;;;;;;;;;;23.62;56.15;100712.59;7403611;19;1634;-57
2022/07/15 04:35:58;;;;;;;;;;;;;;;23.59;56.34;100713.75;7404733;19;1610;-57
2022/07/15 04:38:27;;;;;;;;;;;;;;;23.65;56.25;100711.41;7405175;19;1861;-57
2022/07/15 04:40:56;;;;;;;;;;;;;;;23.64;55.81;100713.25;7405326;19;1435;-57
2022/07/15 04:43:24;;;;;;;;;;;;;;;23.63;55.93;100704.31;7404299;19;1552;-57
2022/07/15 04:45:53;;;;;;;;;;;;;;;23.66;55.64;100702.31;7405214;19;1423;-58
2022/07/15 04:51:05;;;;;;;;;;;;;;;23.69;55.73;100701.94;7406275;19;1579;-57
2022/07/15 04:53:34;;;;;;;;;;;;;;;23.72;55.72;100707.03;7405551;19;1534;-57
2022/07/15 04:56:02;;;;;;;;;;;;;;;23.73;55.81;100701.44;7405173;19;1552;-57
2022/07/15 04:58:31;;;;;;;;;;;;;;;23.74;55.68;100707.69;7403542;19;1861;-57
2022/07/15 05:00:59;;;;;;;;;;;;;;;23.76;55.74;100703.81;7404737;19;1360;-57
2022/07/15 05:03:31;;;;;;;;;;;;;;;23.81;55.51;100704.19;7405128;19;1851;-57
2022/07/15 05:05:59;;;;;;;;;;;;;;;23.79;55.73;100681.88;7406034;19;1628;-57
2022/07/15 05:08:28;;;;;;;;;;;;;;;23.80;55.57;100688.16;7404925;19;1624;-57
2022/07/15 05:10:57;;;;;;;;;;;;;;;23.79;55.60;100687.28;7404128;19;1878;-57
2022/07/15 05:13:25;;;;;;;;;;;;;;;23.84;55.42;100683.28;7405081;19;1541;-57
2022/07/15 05:15:54;;;;;;;;;;;;;;;23.85;55.36;100679.53;7405697;19;1620;-57
2022/07/15 05:18:22;;;;;;;;;;;;;;;23.89;55.39;100697.09;7402574;19;1861;-57
2022/07/15 05:20:54;;;;;;;;;;;;;;;23.87;55.46;100685.63;7404670;19;1420;-57
2022/07/15 05:23:22;;;;;;;;;;;;;;;23.87;55.30;100699.94;7404970;19;1432;-57
2022/07/15 05:25:51;;;;;;;;;;;;;;;23.91;55.35;100689.66;7403992;19;1376;-57
2022/07/15 05:28:19;;;;;;;;;;;;;;;23.90;55.41;100694.22;7405235;19;1432;-57
2022/07/15 05:30:48;;;;;;;;;;;;;;;23.94;55.39;100689.34;7404580;19;1596;-60
2022/07/15 05:33:18;;;;;;;;;;;;;;;23.90;55.27;100687.97;7402758;19;1491;-60
2022/07/15 05:35:47;;;;;;;;;;;;;;;23.85;55.34;100701.13;7405434;19;1548;-60
2022/07/15 05:38:18;;;;;;;;;;;;;;;23.85;55.55;100695.75;7405316;19;1862;-60
2022/07/15 05:40:46;;;;;;;;;;;;;;;23.89;55.55;100692.53;7401903;19;1700;-60
2022/07/15 05:43:15;;;;;;;;;;;;;;;23.85;55.62;100685.78;7404944;19;1624;-60
2022/07/15 05:45:44;;;;;;;;;;;;;;;23.85;55.52;100684.94;7403171;19;1788;-60
2022/07/15 05:48:12;;;;;;;;;;;;;;;23.80;55.75;100678.19;7403986;19;1512;-60
2022/07/15 05:50:41;;;;;;;;;;;;;;;23.79;55.80;100676.50;7404241;19;1542;-60
2022/07/15 05:53:09;;;;;;;;;;;;;;;23.79;56.09;100687.28;7403030;19;1348;-60
2022/07/15 05:55:40;;;;;;;;;;;;;;;23.77;55.86;100693.84;7404312;19;1271;-60
2022/07/15 05:58:10;;;;;;;;;;;;;;;23.79;55.98;100681.88;7404293;19;1859;-60
2022/07/15 06:00:39;;;;;;;;;;;;;;;23.82;55.80;100681.56;7403209;19;1621;-60
2022/07/15 06:03:08;;;;;;;;;;;;;;;23.80;56.19;100671.97;7402855;19;1617;-60
2022/07/15 06:05:36;;;;;;;;;;;;;;;23.86;55.95;100697.44;7403887;19;1605;-60
2022/07/15 06:08:05;;;;;;;;;;;;;;;23.84;55.94;100677.88;7404405;19;1550;-60
2022/07/15 06:10:33;;;;;;;;;;;;;;;23.81;55.93;100685.28;7403357;19;1426;-60
2022/07/15 06:13:04;;;;;;;;;;;;;;;23.84;55.96;100672.47;7403706;19;1692;-60
2022/07/15 06:15:33;;;;;;;;;;;;;;;23.81;55.98;100663.69;7403401;19;1753;-60
2022/07/15 06:18:02;;;;;;;;;;;;;;;23.84;56.21;100683.28;7403268;19;1823;-61
2022/07/15 06:20:30;;;;;;;;;;;;;;;23.81;56.02;100685.28;7402012;19;1522;-60
2022/07/15 06:22:59;;;;;;;;;;;;;;;23.85;55.95;100674.13;7407371;19;1346;-60
2022/07/15 06:25:27;;;;;;;;;;;;;;;23.86;55.87;100673.97;7410709;19;1538;-60
2022/07/15 06:27:56;;;;;;;;;;;;;;;23.82;56.14;100653.72;7410713;19;1613;-60
2022/07/15 06:30:27;;;;;;;;;;;;;;;23.85;56.21;100657.94;7410817;19;1782;-60
2022/07/15 06:32:57;;;;;;;;;;;;;;;23.80;56.23;100662.00;7410703;19;1515;-60
2022/07/15 06:35:26;;;;;;;;;;;;;;;23.83;56.24;100658.09;7412614;19;990;-60
2022/07/15 06:37:54;;;;;;;;;;;;;;;23.82;56.44;100651.84;7410590;19;1853;-60
2022/07/15 06:40:23;;;;;;;;;;;;;;;23.82;56.51;100662.66;7407236;19;1770;-60
2022/07/15 06:42:51;;;;;;;;;;;;;;;23.88;56.27;100671.09;7411253;19;1513;-60
2022/07/15 06:45:20;;;;;;;;;;;;;;;23.88;56.14;100663.00;7410309;19;1609;-60
2022/07/15 06:47:51;;;;;;;;;;;;;;;23.86;56.40;100668.56;7410667;19;1632;-60
2022/07/15 06:50:22;;;;;;;;;;;;;;;23.80;56.59;100667.38;7410455;19;1727;-60
2022/07/15 06:52:51;;;;;;;;;;;;;;;23.84;56.39;100675.16;7410316;19;1589;-60
2022/07/15 06:55:19;;;;;;;;;;;;;;;23.85;56.27;100663.34;7409584;19;1381;-60
2022/07/15 06:57:48;;;;;;;;;;;;;;;23.90;56.44;100666.38;7410436;19;1360;-60
2022/07/15 07:00:17;;;;;;;;;;;;;;;23.86;56.14;100667.75;7407172;19;1841;-60
2022/07/15 07:02:46;;;;;;;;;;;;;;;23.86;56.41;100655.06;7409210;19;1066;-60
2022/07/15 07:05:17;;;;;;;;;;;;;;;23.89;56.22;100667.38;7409028;19;1775;-60
2022/07/15 07:07:46;;;;;;;;;;;;;;;23.88;56.45;100663.84;7406715;19;1494;-60
2022/07/15 07:10:15;;;;;;;;;;;;;;;23.82;56.49;100668.06;7409264;19;1550;-60
2022/07/15 07:12:44;;;;;;;;;;;;;;;23.84;56.39;100667.91;7406194;19;1461;-60
2022/07/15 07:15:12;;;;;;;;;;;;;;;23.84;56.38;100672.47;7409788;19;1530;-60
2022/07/15 07:17:41;;;;;;;;;;;;;;;23.85;56.62;100669.56;7410314;19;1604;-60
2022/07/15 07:20:10;;;;;;;;;;;;;;;23.83;56.54;100668.91;7405883;19;1842;-60
2022/07/15 07:22:41;;;;;;;;;;;;;;;23.86;56.61;100665.88;7407602;19;1639;-60
2022/07/15 07:25:10;;;;;;;;;;;;;;;23.89;56.24;100676.31;7409259;19;1208;-60
2022/07/15 07:27:39;;;;;;;;;;;;;;;23.86;56.65;100671.28;7408586;19;1716;-60
2022/07/15 07:30:09;;;;;;;;;;;;;;;23.88;56.45;100684.63;7409357;19;1546;-57
2022/07/15 07:32:37;;;;;;;;;;;;;;;23.89;56.52;100679.03;7408598;19;1758;-57
2022/07/15 07:35:06;;;;;;;;;;;;;;;23.87;56.61;100667.53;7407075;19;1687;-57
2022/07/15 07:37:37;;;;;;;;;;;;;;;23.91;56.41;100670.75;7406241;19;1605;-57
2022/07/15 07:40:10;;;;;;;;;;;;;;;23.85;56.65;100672.28;7407164;19;1861;-57
2022/07/15 07:42:40;;;;;;;;;;;;;;;23.88;56.43;100673.81;7407216;19;1373;-57
2022/07/15 07:45:10;;;;;;;;;;;;;;;23.92;56.41;100680.56;7408260;19;1613;-57
2022/07/15 07:47:40;;;;;;;;;;;;;;;23.92;56.70;100680.56;7408621;19;1565;-57
2022/07/15 07:50:09;;;;;;;;;;;;;;;23.91;56.53;100670.75;7408272;19;1685;-57
2022/07/15 07:52:38;;;;;;;;;;;;;;;23.92;56.38;100664.34;7403659;19;1479;-57
2022/07/15 07:55:09;;;;;;;;;;;;;;;23.89;56.50;100662.81;7407374;19;1264;-60
2022/07/15 07:57:38;;;;;;;;;;;;;;;23.91;56.72;100677.00;7407135;19;1525;-59
2022/07/15 08:00:07;;;;;;;;;;;;;;;23.92;56.32;100684.09;7406128;19;1858;-58
2022/07/15 08:02:36;;;;;;;;;;;;;;;23.86;56.72;100670.44;7405793;19;1675;-60
2022/07/15 08:05:04;;;;;;;;;;;;;;;23.87;56.66;100655.91;7406735;19;1763;-59
2022/07/15 08:07:33;;;;;;;;;;;;;;;23.91;56.75;100668.06;7406920;19;1296;-59
2022/07/15 08:10:01;;;;;;;;;;;;;;;23.84;56.70;100672.47;7408273;19;1511;-61
2022/07/15 08:12:32;;;;;;;;;;;;;;;23.83;56.79;100671.59;7406157;19;1746;-59
2022/07/15 08:15:01;;;;;;;;;;;;;;;23.88;56.87;100676.50;7408298;19;1530;-56
2022/07/15 08:17:29;;;;;;;;;;;;;;;23.89;56.64;100664.69;7407193;19;1368;-59
2022/07/15 08:19:57;;;;;;;;;;;;;;;23.83;56.84;100663.50;7406067;19;1861;-59
2022/07/15 08:22:26;;;;;;;;;;;;;;;23.88;56.61;100663.00;7407063;19;1616;-59
2022/07/15 08:24:54;;;;;;;;;;;;;;;23.88;56.86;100660.31;7407353;19;1565;-60
2022/07/15 08:27:23;;;;;;;;;;;;;;;23.85;56.59;100666.03;7407720;19;1605;-60
2022/07/15 08:29:55;;;;;;;;;;;;;;;23.86;56.66;100665.88;7406366;19;1240;-59
2022/07/15 08:32:24;;;;;;;;;;;;;;;23.89;56.56;100664.69;7407605;19;1427;-60
2022/07/15 08:34:52;;;;;;;;;;;;;;;23.88;56.77;100668.41;7406369;19;1636;-60
2022/07/15 08:37:21;;;;;;;;;;;;;;;23.84;56.78;100657.09;7406523;19;1620;-64
2022/07/15 08:39:49;;;;;;;;;;;;;;;23.81;56.81;100666.41;7406907;19;1846;-60
2022/07/15 08:42:18;;;;;;;;;;;;;;;23.85;56.86;100669.56;7405464;19;1767;-56
2022/07/15 08:44:46;;;;;;;;;;;;;;;23.79;57.02;100660.28;7404507;19;1552;-59
2022/07/15 08:47:17;;;;;;;;;;;;;;;23.89;57.12;100668.22;7405913;19;1444;-59
2022/07/15 08:49:49;;;;;;;;;;;;;;;23.84;57.07;100658.97;7406812;19;1199;-57
2022/07/15 08:52:18;;;;;;;;;;;;;;;23.88;57.16;100663.84;7405764;19;1861;-57
2022/07/15 08:54:47;;;;;;;;;;;;;;;23.90;56.94;100666.38;7407094;19;1560;-60
2022/07/15 08:57:15;;;;;;;;;;;;;;;23.92;57.11;100656.25;7405237;19;1673;-59
2022/07/15 08:59:45;;;;;;;;;;;;;;;23.93;56.70;100660.63;7403981;19;1870;-57
2022/07/15 09:02:20;;;;;;;;;;;;;;;23.90;56.84;100660.97;7404742;19;1352;-58
2022/07/15 09:05:11;;;;;;;;;;;;;;;23.90;57.15;100655.59;7406075;19;1621;-60
2022/07/15 09:07:52;;;;;;;;;;;;;;;23.85;56.95;100663.34;7404419;19;1787;-60
2022/07/15 09:10:21;;;;;;;;;;;;;;;23.84;57.13;100657.09;7405598;19;1507;-59
2022/07/15 09:12:51;;;;;;;;;;;;;;;23.84;57.01;100650.88;7404041;19;1557;-56
2022/07/15 09:15:35;;;;;;;;;;;;;;;23.78;57.33;100642.41;7405846;19;1522;-59
2022/07/15 09:18:14;;;;;;;;;;;;;;;23.85;57.38;100641.72;7405130;19;1620;-57
2022/07/15 09:20:44;;;;;;;;;;;;;;;23.86;56.99;100646.13;7403767;19;1849;-56
2022/07/15 09:23:17;;;;;;;;;;;;;;;23.85;57.05;100636.34;7404929;19;1671;-59
2022/07/15 09:25:46;;;;;;;;;;;;;;;23.85;57.22;100637.16;7404988;19;1688;-59
2022/07/15 09:28:15;;;;;;;;;;;;;;;23.85;57.15;100630.94;7404257;19;1538;-57
2022/07/15 09:33:40;;;;;;;;;;;;;;;23.87;57.26;100637.00;7405639;19;1620;-58
2022/07/15 09:36:13;;;;;;;;;;;;;;;23.90;56.82;100624.00;7404243;19;1763;-59
2022/07/15 09:38:45;;;;;;;;;;;;;;;23.97;56.75;100626.84;7404903;19;1578;-56
2022/07/15 09:41:15;;;;;;;;;;;;;;;23.88;56.84;100617.09;7400488;19;1852;-59
2022/07/15 09:43:47;;;;;;;;;;;;;;;23.87;56.96;100618.09;7402863;19;1237;-59
2022/07/15 09:46:16;;;;;;;;;;;;;;;23.92;57.03;100615.75;7403739;19;1268;-60
2022/07/15 09:48:47;;;;;;;;;;;;;;;23.90;56.68;100602.41;7404852;19;1356;-60
2022/07/15 09:51:16;;;;;;;;;;;;;;;23.90;56.88;100602.41;7403440;19;1338;-57
2022/07/15 09:53:45;;;;;;;;;;;;;;;23.92;56.99;100604.94;7404637;19;1904;-57
2022/07/15 09:56:15;;;;;;;;;;;;;;;23.90;57.08;100612.38;7403109;19;1367;-57
2022/07/15 09:58:44;;;;;;;;;;;;;;;23.92;56.93;100602.22;7410971;19;1209;-60
2022/07/15 10:01:14;;;;;;;;;;;;;;;23.88;57.09;100593.63;7408995;19;1850;-58
2022/07/15 10:03:42;;;;;;;;;;;;;;;23.92;56.94;100588.72;7410222;19;1659;-60
2022/07/15 10:06:16;;;;;;;;;;;;;;;23.92;56.79;100596.84;7410960;19;1349;-57
2022/07/15 10:08:48;;;;;;;;;;;;;;;23.90;56.82;100586.19;7412741;19;980;-57
2022/07/15 10:11:17;;;;;;;;;;;;;;;23.92;56.86;100588.72;7408243;19;1696;-57
2022/07/15 10:13:53;;;;;;;;;;;;;;;23.92;56.99;100588.72;7410721;19;1627;-60
2022/07/15 10:16:29;;;;;;;;;;;;;;;23.89;56.93;100584.50;7410163;19;1288;-56
2022/07/15 10:19:05;;;;;;;;;;;;;;;23.91;56.92;100582.47;7410286;19;1631;-57
2022/07/15 10:21:39;;;;;;;;;;;;;;;23.95;57.08;100582.97;7410180;19;1596;-57
2022/07/15 10:24:24;;;;;;;;;;;;;;;23.91;56.84;100565.44;7411794;19;1525;-57
2022/07/15 10:26:58;;;;;;;;;;;;;;;23.90;56.90;100571.84;7411294;19;1542;-57
2022/07/15 10:29:27;;;;;;;;;;;;;;;23.96;57.05;100563.91;7411103;19;1537;-60
2022/07/15 10:31:59;;;;;;;;;;;;;;;23.94;57.09;100543.50;7410313;19;1427;-57
2022/07/15 10:34:31;;;;;;;;;;;;;;;23.91;56.76;100554.63;7410891;19;1836;-59
2022/07/15 10:37:04;;;;;;;;;;;;;;;23.91;57.08;100565.44;7409656;19;1549;-60
2022/07/15 10:39:47;;;;;;;;;;;;;;;23.84;57.30;100542.84;7409861;19;1854;-59
2022/07/15 10:42:16;;;;;;;;;;;;;;;23.92;56.97;100546.34;7410146;19;1711;-57
2022/07/15 10:44:52;;;;;;;;;;;;;;;23.90;56.83;100552.94;7410615;19;1841;-57
2022/07/15 10:47:21;;;;;;;;;;;;;;;23.91;57.01;100549.22;7409551;19;1597;-59
2022/07/15 10:49:50;;;;;;;;;;;;;;;23.91;56.85;100541.13;7409904;19;1347;-61
2022/07/15 10:52:22;;;;;;;;;;;;;;;23.96;56.91;100549.56;7409603;19;1269;-60
2022/07/15 10:54:52;;;;;;;;;;;;;;;23.95;57.20;100545.16;7409722;19;1264;-58
2022/07/15 10:57:21;;;;;;;;;;;;;;;23.92;56.97;100556.31;7409744;19;1283;-56
2022/07/15 10:59:55;;;;;;;;;;;;;;;23.93;56.67;100537.22;7407317;19;1855;-57
2022/07/15 11:02:24;;;;;;;;;;;;;;;23.94;57.08;100560.53;7406577;19;1637;-59
2022/07/15 11:04:53;;;;;;;;;;;;;;;23.95;56.88;100545.16;7408303;19;1534;-56
2022/07/15 11:07:26;;;;;;;;;;;;;;;23.93;56.94;100537.22;7409323;19;1423;-57
2022/07/15 11:09:55;;;;;;;;;;;;;;;23.95;56.84;100539.75;7409521;19;1609;-60
2022/07/15 11:12:25;;;;;;;;;;;;;;;23.89;57.29;100529.66;7405063;19;1546;-57
2022/07/15 11:14:57;;;;;;;;;;;;;;;23.90;57.18;100525.94;7408964;19;1455;-57
2022/07/15 11:17:27;;;;;;;;;;;;;;;23.91;57.08;100530.31;7407591;19;1541;-59
2022/07/15 11:19:58;;;;;;;;;;;;;;;23.97;57.27;100532.31;7409025;19;1852;-57
2022/07/15 11:22:29;;;;;;;;;;;;;;;23.94;57.18;100511.06;7408221;19;1728;-57
2022/07/15 11:24:59;;;;;;;;;;;;;;;23.96;56.92;100525.25;7409316;19;1542;-56
2022/07/15 11:27:27;;;;;;;;;;;;;;;23.95;57.15;100523.56;7410188;19;1584;-57
2022/07/15 11:29:59;;;;;;;;;;;;;;;23.96;57.07;100519.84;7408780;19;1770;-57
2022/07/15 11:32:28;;;;;;;;;;;;;;;23.97;56.90;100522.38;7408694;19;1499;-60
2022/07/15 11:34:57;;;;;;;;;;;;;;;23.94;57.12;100501.09;7405530;19;1152;-59
2022/07/15 11:37:32;;;;;;;;;;;;;;;23.93;57.12;100509.38;7409065;19;1532;-57
2022/07/15 11:40:11;;;;;;;;;;;;;;;23.99;56.99;100524.88;7404762;19;1864;-59
2022/07/15 11:45:43;;;;;;;;;;;;;;;23.94;57.26;100506.50;7408855;19;1510;-57
2022/07/15 11:48:11;;;;;;;;;;;;;;;23.97;57.00;100516.13;7407337;19;1259;-60
2022/07/15 11:50:40;;;;;;;;;;;;;;;23.95;56.90;100526.25;7408356;19;1534;-56
2022/07/15 11:53:17;;;;;;;;;;;;;;;23.98;56.76;100515.13;7409452;19;981;-59
2022/07/15 11:55:53;;;;;;;;;;;;;;;23.93;57.35;100498.56;7405675;19;1300;-59
2022/07/15 11:58:28;;;;;;;;;;;;;;;23.94;56.98;100500.28;7408676;19;1521;-59
2022/07/15 12:00:57;;;;;;;;;;;;;;;23.93;57.13;100498.56;7406076;19;1865;-57
2022/07/15 12:03:25;;;;;;;;;;;;;;;24.00;57.24;100496.88;7408198;19;1522;-56
2022/07/15 12:06:04;;;;;;;;;;;;;;;23.99;57.01;100492.47;7406327;19;1253;-59
2022/07/15 12:08:40;;;;;;;;;;;;;;;23.97;56.80;100494.50;7407884;19;1363;-57
2022/07/15 12:11:12;;;;;;;;;;;;;;;24.00;57.11;100491.47;7407063;19;1421;-58
2022/07/15 12:13:48;;;;;;;;;;;;;;;24.01;57.02;100490.44;7407005;19;1372;-60
2022/07/15 12:16:16;;;;;;;;;;;;;;;24.03;56.91;100491.09;7408106;19;1220;-60
2022/07/15 12:18:45;;;;;;;;;;;;;;;23.99;56.92;100487.06;7407066;19;1719;-60
2022/07/15 12:21:13;;;;;;;;;;;;;;;24.01;57.01;100482.34;7404183;19;1857;-57
2022/07/15 12:23:59;;;;;;;;;;;;;;;24.05;56.80;100494.47;7407994;19;1600;-57
2022/07/15 12:26:27;;;;;;;;;;;;;;;24.04;56.92;100481.16;7404571;19;1324;-57
2022/07/15 12:28:57;;;;;;;;;;;;;;;24.04;57.02;100482.00;7405579;19;1424;-59
2022/07/15 12:31:29;;;;;;;;;;;;;;;24.04;56.62;100473.06;7406682;19;1839;-59
2022/07/15 12:33:57;;;;;;;;;;;;;;;24.06;56.81;100474.56;7407254;19;1534;-59
2022/07/15 12:36:27;;;;;;;;;;;;;;;24.02;57.02;100484.03;7407333;19;1537;-57
2022/07/15 12:39:11;;;;;;;;;;;;;;;24.04;57.09;100460.38;7407309;19;1722;-60
2022/07/15 12:41:40;;;;;;;;;;;;;;;24.07;56.83;100472.69;7404570;19;1853;-57
2022/07/15 12:44:09;;;;;;;;;;;;;;;24.01;57.22;100466.13;7406324;19;1322;-60
2022/07/15 12:46:52;;;;;;;;;;;;;;;23.99;57.07;100466.31;7406519;19;1754;-59
2022/07/15 12:49:35;;;;;;;;;;;;;;;23.96;57.12;100473.94;7406217;19;1652;-59
2022/07/15 12:52:14;;;;;;;;;;;;;;;23.96;57.26;100463.13;7406250;19;1652;-61
2022/07/15 12:54:45;;;;;;;;;;;;;;;23.92;57.47;100476.13;7405614;19;1632;-57
2022/07/15 12:57:28;;;;;;;;;;;;;;;23.99;57.49;100468.16;7406365;19;1695;-59
2022/07/15 12:59:58;;;;;;;;;;;;;;;24.05;57.38;100463.91;7405514;19;1842;-59
2022/07/15 13:02:27;;;;;;;;;;;;;;;24.09;56.99;100479.59;7403021;19;1530;-57
2022/07/15 13:04:55;;;;;;;;;;;;;;;24.00;56.97;100468.00;7406966;19;1537;-57
2022/07/15 13:07:24;;;;;;;;;;;;;;;24.08;56.83;100459.00;7406586;19;1522;-57
2022/07/15 13:09:58;;;;;;;;;;;;;;;24.07;56.84;100460.03;7404761;19;1561;-57
2022/07/15 13:12:26;;;;;;;;;;;;;;;24.09;56.85;100454.44;7403968;19;1711;-60
2022/07/15 13:14:55;;;;;;;;;;;;;;;24.06;57.03;100460.22;7405065;19;1679;-57